Time;durP1;ratioP1;P1;durP2;ratioP2;P2;SDS_P1;SDS_P2;PMS_P1;PMS_P2;Temp;Humidity;BMP_temperature;BMP_pressure;BME280_temperature;BME280_humidity;BME280_pressure;Samples;Min_cycle;Max_cycle;Signal;HPM_P1;HPM_P2
2022/09/06 00:00:43;;;;;;;4.37;2.43;;;18.00;98.00;;;;;;5032471;28;20465;-73
2022/09/06 00:03:10;;;;;;;4.70;2.20;;;18.10;98.00;;;;;;5032186;28;20456;-72
2022/09/06 00:05:38;;;;;;;5.37;2.77;;;18.10;98.00;;;;;;5032574;28;20473;-72
2022/09/06 00:08:06;;;;;;;4.50;2.90;;;18.10;98.00;;;;;;5032034;28;20455;-73
2022/09/06 00:10:34;;;;;;;4.10;2.50;;;18.00;98.00;;;;;;5032231;28;20487;-73
2022/09/06 00:13:03;;;;;;;4.00;2.90;;;17.90;98.00;;;;;;5032049;28;20945;-72
2022/09/06 00:15:31;;;;;;;4.63;2.53;;;17.80;98.00;;;;;;5032215;28;20953;-72
2022/09/06 00:17:59;;;;;;;3.07;2.20;;;17.90;98.00;;;;;;5031934;28;20485;-72
2022/09/06 00:20:27;;;;;;;4.13;2.40;;;18.00;98.00;;;;;;5031891;28;20457;-72
2022/09/06 00:22:58;;;;;;;4.13;2.10;;;17.90;98.00;;;;;;5013867;28;20463;-72
2022/09/06 00:25:26;;;;;;;3.97;2.50;;;17.70;98.00;;;;;;5031942;28;20525;-72
2022/09/06 00:27:55;;;;;;;4.77;2.20;;;17.70;98.00;;;;;;5031918;28;20463;-73
2022/09/06 00:30:22;;;;;;;4.50;2.40;;;17.60;98.00;;;;;;5031905;28;20549;-72
2022/09/06 00:32:49;;;;;;;3.27;2.40;;;17.60;98.00;;;;;;5031844;28;20473;-72
2022/09/06 00:35:17;;;;;;;3.63;2.53;;;17.50;98.00;;;;;;5031791;28;20451;-72
2022/09/06 00:37:44;;;;;;;2.90;2.10;;;17.60;98.00;;;;;;5031847;28;20462;-72
2022/09/06 00:40:12;;;;;;;5.33;2.63;;;17.40;98.00;;;;;;5031949;28;20462;-72
2022/09/06 00:42:40;;;;;;;4.43;2.33;;;17.50;98.00;;;;;;5032081;28;20455;-73
2022/09/06 00:45:10;;;;;;;5.07;2.83;;;17.70;98.00;;;;;;5031958;28;20451;-72
2022/09/06 00:47:40;;;;;;;4.10;2.33;;;17.70;98.00;;;;;;5031912;28;20455;-72
2022/09/06 00:50:09;;;;;;;7.13;2.87;;;17.50;98.00;;;;;;5031767;28;20469;-72
2022/09/06 00:52:37;;;;;;;3.80;2.10;;;17.30;98.00;;;;;;5014422;28;20514;-73
2022/09/06 00:55:05;;;;;;;4.40;2.60;;;17.60;98.00;;;;;;5032068;28;20674;-72
2022/09/06 00:57:33;;;;;;;4.33;2.37;;;17.50;98.00;;;;;;5031700;28;20525;-73
2022/09/06 01:00:04;;;;;;;3.00;2.10;;;17.30;98.00;;;;;;5031910;28;20846;-72
2022/09/06 01:02:31;;;;;;;3.90;2.57;;;17.20;98.00;;;;;;5031507;28;20454;-72
2022/09/06 01:04:59;;;;;;;2.90;2.10;;;17.20;98.00;;;;;;5031943;28;20465;-72
2022/09/06 01:07:35;;;;;;;4.07;2.83;;;17.30;98.00;;;;;;5035537;28;20462;-72
2022/09/06 01:10:20;;;;;;;2.80;2.10;;;17.20;98.00;;;;;;5035452;28;20465;-72
2022/09/06 01:12:57;;;;;;;3.70;2.40;;;17.10;98.00;;;;;;5035366;28;20458;-72
2022/09/06 01:15:33;;;;;;;2.40;1.87;;;17.20;98.00;;;;;;5035396;28;20455;-72
2022/09/06 01:18:13;;;;;;;3.10;2.20;;;17.20;98.00;;;;;;5035187;28;20477;-72
2022/09/06 01:20:52;;;;;;;10.00;2.43;;;17.30;98.00;;;;;;5035318;28;20458;-72
2022/09/06 01:24:04;;;;;;;2.90;1.97;;;17.20;98.00;;;;;;5035312;28;20463;-72
2022/09/06 01:27:01;;;;;;;4.57;2.73;;;17.10;98.00;;;;;;5035392;28;20790;-72
2022/09/06 01:29:36;;;;;;;3.00;2.20;;;17.00;98.00;;;;;;5035071;28;20462;-71
2022/09/06 01:32:09;;;;;;;4.43;2.37;;;17.00;98.00;;;;;;5035057;28;21031;-72
2022/09/06 01:34:42;;;;;;;4.60;2.20;;;17.10;98.00;;;;;;5034898;28;20458;-73
2022/09/06 01:37:12;;;;;;;2.60;2.03;;;17.00;98.00;;;;;;5035216;28;20454;-72
2022/09/06 01:39:41;;;;;;;2.70;1.93;;;17.00;98.00;;;;;;5035117;28;20451;-72
2022/09/06 01:42:11;;;;;;;3.47;2.53;;;17.20;98.00;;;;;;5035197;28;20457;-72
2022/09/06 01:44:45;;;;;;;4.70;2.37;;;17.30;98.00;;;;;;5034914;28;20474;-72
2022/09/06 01:47:21;;;;;;;3.13;2.10;;;17.30;98.00;;;;;;5035123;28;20482;-72
2022/09/06 01:50:03;;;;;;;2.03;1.87;;;17.10;98.00;;;;;;5034958;28;20949;-72
2022/09/06 01:52:35;;;;;;;3.50;2.23;;;17.10;98.00;;;;;;5035043;28;20999;-72
2022/09/06 01:55:17;;;;;;;4.80;2.47;;;17.00;98.00;;;;;;5034692;28;20466;-72
2022/09/06 01:57:57;;;;;;;3.60;2.10;;;17.10;98.00;;;;;;5035031;28;20465;-72
2022/09/06 02:00:26;;;;;;;3.23;2.30;;;16.90;98.00;;;;;;5034520;28;20485;-72
2022/09/06 02:03:01;;;;;;;3.63;2.07;;;16.90;98.00;;;;;;5034766;28;20797;-72
2022/09/06 02:05:32;;;;;;;4.77;2.30;;;16.90;98.00;;;;;;5034348;28;20461;-72
2022/09/06 02:08:05;;;;;;;2.37;2.00;;;16.80;98.00;;;;;;5034462;28;20459;-72
2022/09/06 02:10:37;;;;;;;2.60;2.30;;;16.70;98.00;;;;;;5034233;28;20470;-72
2022/09/06 02:13:07;;;;;;;2.53;1.77;;;16.60;98.00;;;;;;5034331;28;20463;-72
2022/09/06 02:15:39;;;;;;;2.67;1.90;;;16.70;98.00;;;;;;5034375;28;20459;-72
2022/09/06 02:18:12;;;;;;;2.80;2.10;;;16.70;98.00;;;;;;5032884;28;20509;-72
2022/09/06 02:20:45;;;;;;;3.13;2.30;;;16.60;98.00;;;;;;5034482;28;20458;-72
2022/09/06 02:23:15;;;;;;;2.40;2.13;;;16.50;98.00;;;;;;5034182;28;20462;-72
2022/09/06 02:25:50;;;;;;;2.80;2.00;;;16.50;98.00;;;;;;5034209;28;20957;-72
2022/09/06 02:28:18;;;;;;;2.83;1.90;;;16.60;98.00;;;;;;5016898;28;20959;-72
2022/09/06 02:30:55;;;;;;;3.73;2.17;;;16.70;98.00;;;;;;5034170;28;20482;-72
2022/09/06 02:33:26;;;;;;;3.47;2.37;;;16.70;98.00;;;;;;5016341;28;20457;-72
2022/09/06 02:36:02;;;;;;;3.33;2.40;;;16.80;98.00;;;;;;5034042;28;20455;-71
2022/09/06 02:38:30;;;;;;;3.70;2.07;;;16.80;98.00;;;;;;5016433;28;20945;-73
2022/09/06 02:40:58;;;;;;;3.27;2.10;;;16.70;98.00;;;;;;5033725;28;20467;-72
2022/09/06 02:43:25;;;;;;;4.23;2.53;;;16.80;98.00;;;;;;5034006;28;20808;-72
2022/09/06 02:45:54;;;;;;;4.47;2.20;;;16.90;98.00;;;;;;5033972;28;20461;-72
2022/09/06 02:48:21;;;;;;;3.73;2.00;;;17.10;98.00;;;;;;5033945;28;20486;-72
2022/09/06 02:50:48;;;;;;;3.80;2.30;;;17.20;98.00;;;;;;5032952;28;20495;-72
2022/09/06 02:53:16;;;;;;;4.10;2.70;;;17.10;98.00;;;;;;5033043;28;20462;-72
2022/09/06 02:55:45;;;;;;;3.27;2.23;;;17.00;98.00;;;;;;5033350;28;20454;-72
2022/09/06 02:58:13;;;;;;;2.87;2.10;;;17.00;98.00;;;;;;5032772;28;20462;-72
2022/09/06 03:00:40;;;;;;;2.50;1.80;;;17.00;98.00;;;;;;5033056;28;20579;-72
2022/09/06 03:03:08;;;;;;;4.20;2.40;;;17.00;98.00;;;;;;5032437;28;20466;-72
2022/09/06 03:05:36;;;;;;;4.37;2.40;;;17.00;98.00;;;;;;5033271;28;20463;-72
2022/09/06 03:08:03;;;;;;;3.13;2.23;;;17.00;98.00;;;;;;5033232;28;20450;-72
2022/09/06 03:10:32;;;;;;;8.87;4.13;;;17.10;98.00;;;;;;5033327;28;20824;-72
2022/09/06 03:12:59;;;;;;;4.23;2.63;;;17.20;98.00;;;;;;5033124;28;20482;-73
2022/09/06 03:15:29;;;;;;;4.63;2.47;;;17.30;98.00;;;;;;5033176;28;20483;-72
2022/09/06 03:17:58;;;;;;;2.87;2.10;;;17.50;98.00;;;;;;5033086;28;20462;-72
2022/09/06 03:20:27;;;;;;;2.67;2.00;;;17.60;98.00;;;;;;5033179;28;20490;-72
2022/09/06 03:22:55;;;;;;;2.93;2.20;;;17.60;98.00;;;;;;5033005;28;20458;-72
2022/09/06 03:25:22;;;;;;;5.37;2.20;;;17.70;98.00;;;;;;5033066;28;20458;-72
2022/09/06 03:27:49;;;;;;;4.50;2.93;;;17.70;98.00;;;;;;5032656;28;20545;-72
2022/09/06 03:30:16;;;;;;;4.03;2.13;;;17.70;98.00;;;;;;5015249;28;20489;-72
2022/09/06 03:32:43;;;;;;;3.47;2.20;;;17.70;98.00;;;;;;5032897;28;21035;-72
2022/09/06 03:35:11;;;;;;;2.93;2.23;;;17.70;98.00;;;;;;5032789;28;20446;-72
2022/09/06 03:37:39;;;;;;;3.53;2.37;;;17.80;98.00;;;;;;5033059;28;20447;-73
2022/09/06 03:40:09;;;;;;;3.47;2.40;;;17.90;98.00;;;;;;5032699;28;20462;-72
2022/09/06 03:42:36;;;;;;;3.63;2.30;;;18.00;98.00;;;;;;5015650;28;20454;-72
2022/09/06 03:45:04;;;;;;;3.50;2.57;;;18.00;98.00;;;;;;5032660;28;20543;-72
2022/09/06 03:47:31;;;;;;;5.20;2.63;;;18.10;98.00;;;;;;5032813;28;20534;-73
2022/09/06 03:49:58;;;;;;;5.30;3.07;;;18.10;98.00;;;;;;5032862;28;20459;-72
2022/09/06 03:52:26;;;;;;;4.53;2.30;;;18.10;98.00;;;;;;5015512;28;20517;-72
2022/09/06 03:54:54;;;;;;;3.87;2.47;;;18.20;98.00;;;;;;5032583;28;20455;-72
2022/09/06 03:57:21;;;;;;;5.30;2.67;;;18.20;98.00;;;;;;5032454;28;20459;-73
2022/09/06 03:59:49;;;;;;;2.70;2.00;;;18.20;98.00;;;;;;5032347;28;20459;-73
2022/09/06 04:02:17;;;;;;;3.80;2.33;;;18.20;98.00;;;;;;5032335;28;20489;-73
2022/09/06 04:04:45;;;;;;;3.50;2.30;;;18.30;98.00;;;;;;5032300;28;20459;-72
2022/09/06 04:07:12;;;;;;;3.93;2.60;;;18.30;98.00;;;;;;5032256;28;20463;-72
2022/09/06 04:09:39;;;;;;;3.70;2.73;;;18.30;98.00;;;;;;5032406;28;20465;-73
2022/09/06 04:12:08;;;;;;;3.63;2.77;;;18.30;98.00;;;;;;5032142;28;20495;-72
2022/09/06 04:14:35;;;;;;;3.97;2.30;;;18.40;98.00;;;;;;5032127;28;20478;-72
2022/09/06 04:17:02;;;;;;;3.27;2.37;;;18.50;98.00;;;;;;5032256;28;20493;-72
2022/09/06 04:19:29;;;;;;;3.20;2.40;;;18.40;98.00;;;;;;5032111;28;20459;-72
2022/09/06 04:21:56;;;;;;;4.17;2.20;;;18.40;98.00;;;;;;5032103;28;20489;-72
2022/09/06 04:24:23;;;;;;;4.13;2.33;;;18.50;98.00;;;;;;5032187;28;20821;-72
2022/09/06 04:26:51;;;;;;;4.10;2.70;;;18.50;98.00;;;;;;5032171;28;20450;-72
2022/09/06 04:29:20;;;;;;;2.40;2.10;;;18.40;98.00;;;;;;4998181;28;20466;-72
2022/09/06 04:31:47;;;;;;;2.57;2.00;;;18.60;98.00;;;;;;5032078;28;20489;-72
2022/09/06 04:34:15;;;;;;;4.70;2.63;;;18.70;98.00;;;;;;5031881;28;20451;-72
2022/09/06 04:36:45;;;;;;;2.90;2.70;;;18.80;98.00;;;;;;5032205;28;20872;-72
2022/09/06 04:39:12;;;;;;;4.97;2.80;;;18.70;98.00;;;;;;5031798;28;20455;-72
2022/09/06 04:41:39;;;;;;;3.30;2.33;;;18.60;98.00;;;;;;5031459;28;20466;-72
2022/09/06 04:44:06;;;;;;;3.30;2.40;;;18.30;98.00;;;;;;5031973;28;20814;-71
2022/09/06 04:46:35;;;;;;;4.17;2.70;;;18.20;98.00;;;;;;5014596;28;20459;-72
2022/09/06 04:49:04;;;;;;;3.73;2.50;;;18.30;98.00;;;;;;5031883;28;20843;-72
2022/09/06 04:51:31;;;;;;;5.20;2.77;;;18.30;98.00;;;;;;5031825;28;20489;-72
2022/09/06 04:53:59;;;;;;;5.13;3.10;;;18.20;98.00;;;;;;5031791;28;20454;-72
2022/09/06 04:56:27;;;;;;;4.03;3.00;;;18.10;98.00;;;;;;5031710;28;20462;-73
2022/09/06 04:58:55;;;;;;;3.87;2.60;;;18.10;98.00;;;;;;5031639;28;20454;-73
2022/09/06 05:01:24;;;;;;;2.93;2.50;;;18.30;98.00;;;;;;5014109;28;20455;-72
2022/09/06 05:03:53;;;;;;;3.97;2.63;;;18.20;98.00;;;;;;5031593;28;20451;-73
2022/09/06 05:06:23;;;;;;;4.37;2.67;;;18.00;98.00;;;;;;5031548;28;20451;-72
2022/09/06 05:08:50;;;;;;;3.60;2.60;;;17.90;98.00;;;;;;5031554;28;20459;-72
2022/09/06 05:11:18;;;;;;;6.37;2.57;;;17.80;98.00;;;;;;5031475;28;20469;-72
2022/09/06 05:13:46;;;;;;;4.63;2.70;;;17.80;98.00;;;;;;5031441;28;20454;-72
2022/09/06 05:16:14;;;;;;;3.80;2.63;;;17.80;98.00;;;;;;5031560;28;20450;-72
2022/09/06 05:18:43;;;;;;;3.40;2.13;;;17.70;98.00;;;;;;5029443;28;20465;-72
2022/09/06 05:21:11;;;;;;;4.00;2.60;;;17.70;98.00;;;;;;5031482;28;20669;-72
2022/09/06 05:23:38;;;;;;;4.27;2.50;;;17.80;98.00;;;;;;5031584;28;20458;-72
2022/09/06 05:26:06;;;;;;;5.50;2.70;;;17.80;98.00;;;;;;5031479;28;20482;-72
2022/09/06 05:28:33;;;;;;;5.43;3.17;;;17.80;98.00;;;;;;5031583;28;20541;-73
2022/09/06 05:31:07;;;;;;;2.10;1.93;;;17.90;98.00;;;;;;5031590;28;20450;-72
2022/09/06 05:33:37;;;;;;;3.40;2.53;;;18.00;98.00;;;;;;5031419;28;20490;-73
2022/09/06 05:36:05;;;;;;;3.73;2.30;;;18.00;98.00;;;;;;5031494;28;20545;-73
2022/09/06 05:38:36;;;;;;;3.97;2.50;;;18.10;98.00;;;;;;5031416;28;20490;-72
2022/09/06 05:41:03;;;;;;;4.77;2.77;;;18.30;98.00;;;;;;5030942;28;20459;-72
2022/09/06 05:43:30;;;;;;;3.87;2.47;;;18.40;98.00;;;;;;5031607;28;20463;-72
2022/09/06 05:45:57;;;;;;;3.83;2.53;;;18.20;98.00;;;;;;5031503;28;20454;-72
2022/09/06 05:48:24;;;;;;;7.57;2.90;;;18.40;98.00;;;;;;5030987;28;20961;-72
2022/09/06 05:51:01;;;;;;;6.77;2.40;;;18.60;98.00;;;;;;5031309;28;20466;-73
2022/09/06 05:53:33;;;;;;;4.67;2.87;;;18.50;98.00;;;;;;5034917;28;20478;-73
2022/09/06 05:56:02;;;;;;;5.93;3.40;;;18.60;98.00;;;;;;5034820;28;20462;-72
2022/09/06 05:58:30;;;;;;;3.80;2.87;;;18.50;98.00;;;;;;5034730;28;20465;-72
2022/09/06 06:01:05;;;;;;;3.60;2.67;;;18.50;98.00;;;;;;5034467;28;20450;-71
2022/09/06 06:03:33;;;;;;;3.00;2.33;;;18.40;98.00;;;;;;5034709;28;20477;-72
2022/09/06 06:06:00;;;;;;;3.20;2.60;;;18.40;98.00;;;;;;5034465;28;21108;-72
2022/09/06 06:08:27;;;;;;;4.13;2.47;;;18.60;98.00;;;;;;5034486;28;20474;-75
2022/09/06 06:10:59;;;;;;;3.60;2.70;;;18.70;98.00;;;;;;5033067;28;20473;-67
2022/09/06 06:13:28;;;;;;;3.90;2.27;;;18.80;98.00;;;;;;5013605;28;20521;-72
2022/09/06 06:15:55;;;;;;;4.67;2.80;;;19.10;98.00;;;;;;5013068;28;20547;-74
2022/09/06 06:18:22;;;;;;;3.73;2.27;;;19.10;98.00;;;;;;5013965;28;20809;-69
2022/09/06 06:20:50;;;;;;;2.97;2.50;;;19.10;98.00;;;;;;5014189;28;20467;-71
2022/09/06 06:23:17;;;;;;;7.03;3.07;;;19.20;98.00;;;;;;5013802;28;20482;-73
2022/09/06 06:25:44;;;;;;;5.73;2.53;;;19.30;98.00;;;;;;5013834;28;20455;-73
2022/09/06 06:28:11;;;;;;;3.70;2.60;;;19.40;98.00;;;;;;5013593;28;20482;-73
2022/09/06 06:30:41;;;;;;;3.97;2.80;;;19.40;98.00;;;;;;5013706;28;20459;-73
2022/09/06 06:33:08;;;;;;;5.10;3.23;;;19.30;98.00;;;;;;4996101;28;20487;-73
2022/09/06 06:35:37;;;;;;;3.70;2.40;;;19.40;98.00;;;;;;5013473;28;20463;-72
2022/09/06 06:38:04;;;;;;;5.73;3.03;;;19.40;98.00;;;;;;5013392;28;20458;-73
2022/09/06 06:40:32;;;;;;;4.67;2.60;;;19.30;98.00;;;;;;5013369;28;20468;-72
2022/09/06 06:43:00;;;;;;;4.60;2.70;;;19.30;98.00;;;;;;5013405;28;20961;-72
2022/09/06 06:45:27;;;;;;;6.57;3.00;;;19.20;98.00;;;;;;5013080;28;20743;-72
2022/09/06 06:47:56;;;;;;;3.37;2.37;;;19.20;98.00;;;;;;5013406;28;20463;-73
2022/09/06 06:50:23;;;;;;;3.43;2.70;;;19.20;98.00;;;;;;5012741;28;20475;-72
2022/09/06 06:52:53;;;;;;;6.47;2.77;;;19.40;98.00;;;;;;5013243;28;20495;-73
2022/09/06 06:55:20;;;;;;;4.23;2.70;;;19.30;98.00;;;;;;5013305;28;20494;-72
2022/09/06 06:57:47;;;;;;;2.80;2.40;;;19.10;98.00;;;;;;5012999;28;20458;-72
2022/09/06 07:00:17;;;;;;;5.67;3.20;;;19.00;98.00;;;;;;5012969;28;20968;-72
2022/09/06 07:02:44;;;;;;;5.23;2.80;;;19.10;98.00;;;;;;5012571;28;20950;-73
2022/09/06 07:05:20;;;;;;;5.30;3.40;;;19.10;98.00;;;;;;5012924;28;20481;-73
2022/09/06 07:07:47;;;;;;;5.97;2.87;;;19.00;98.00;;;;;;5012947;28;20473;-73
2022/09/06 07:10:14;;;;;;;4.67;3.00;;;19.20;98.00;;;;;;5012775;28;20786;-73
2022/09/06 07:12:41;;;;;;;4.97;2.90;;;19.10;98.00;;;;;;5012844;28;20487;-72
2022/09/06 07:15:09;;;;;;;4.03;2.83;;;19.30;98.00;;;;;;4995304;28;20462;-73
2022/09/06 07:17:36;;;;;;;3.40;2.23;;;19.30;98.00;;;;;;5012757;28;20479;-73
2022/09/06 07:20:04;;;;;;;7.00;3.13;;;19.30;98.00;;;;;;5018444;28;20459;-72
2022/09/06 07:22:32;;;;;;;4.40;2.70;;;19.20;98.00;;;;;;5047164;28;20458;-72
2022/09/06 07:25:00;;;;;;;3.80;2.90;;;19.30;98.00;;;;;;5039722;28;20465;-72
2022/09/06 07:27:27;;;;;;;5.93;3.30;;;19.40;98.00;;;;;;5030717;28;20988;-73
2022/09/06 07:29:59;;;;;;;4.70;2.93;;;19.60;98.00;;;;;;5014863;28;20443;-72
2022/09/06 07:32:26;;;;;;;5.23;3.63;;;19.80;98.00;;;;;;5032036;28;20489;-73
2022/09/06 07:34:53;;;;;;;4.03;2.63;;;20.10;98.00;;;;;;5032045;28;20997;-73
2022/09/06 07:37:20;;;;;;;4.83;3.13;;;20.30;98.00;;;;;;5031994;28;20949;-72
2022/09/06 07:39:49;;;;;;;4.77;2.57;;;20.50;98.00;;;;;;5032876;28;20455;-71
2022/09/06 07:42:17;;;;;;;4.33;2.87;;;20.60;98.00;;;;;;5032954;28;20455;-74
2022/09/06 07:44:44;;;;;;;3.20;2.43;;;20.70;98.00;;;;;;5015146;28;20462;-74
2022/09/06 07:47:16;;;;;;;6.10;2.87;;;20.70;98.00;;;;;;5032919;28;20450;-76
2022/09/06 07:49:43;;;;;;;3.50;2.10;;;20.70;98.00;;;;;;5032845;28;20459;-76
2022/09/06 07:52:10;;;;;;;3.17;2.57;;;20.70;98.00;;;;;;5032436;28;20451;-75
2022/09/06 07:54:37;;;;;;;4.60;2.40;;;20.70;98.00;;;;;;5032627;28;20446;-77
2022/09/06 07:57:06;;;;;;;6.40;3.17;;;20.70;98.00;;;;;;5032340;28;20451;-75
2022/09/06 07:59:33;;;;;;;4.60;3.00;;;20.80;98.00;;;;;;5032540;28;20450;-76
2022/09/06 08:02:00;;;;;;;4.13;2.57;;;20.90;98.00;;;;;;5008309;28;20454;-75
2022/09/06 08:04:28;;;;;;;4.70;2.93;;;21.00;98.00;;;;;;5032090;28;20473;-75
2022/09/06 08:06:56;;;;;;;3.30;2.40;;;21.20;98.00;;;;;;5014046;28;20458;-75
2022/09/06 08:09:24;;;;;;;9.33;2.80;;;21.30;98.00;;;;;;5014131;28;20521;-77
2022/09/06 08:11:51;;;;;;;3.73;3.10;;;21.40;98.00;;;;;;5013981;28;20462;-77
2022/09/06 08:14:19;;;;;;;3.60;2.67;;;21.50;98.00;;;;;;5030838;28;20479;-77
2022/09/06 08:16:47;;;;;;;6.33;2.77;;;21.60;98.00;;;;;;5031147;28;20463;-74
2022/09/06 08:19:14;;;;;;;3.27;2.50;;;21.70;98.00;;;;;;5031298;28;20454;-76
2022/09/06 08:21:43;;;;;;;3.73;2.60;;;21.80;98.00;;;;;;5031349;28;20554;-75
2022/09/06 08:24:10;;;;;;;4.80;2.90;;;21.90;98.00;;;;;;5031322;28;20830;-76
2022/09/06 08:26:39;;;;;;;4.37;2.70;;;22.00;98.00;;;;;;5031245;28;20458;-74
2022/09/06 08:29:07;;;;;;;5.03;2.53;;;22.10;98.00;;;;;;5013906;28;20463;-78
2022/09/06 08:31:37;;;;;;;3.07;2.30;;;22.30;98.00;;;;;;5031466;28;20517;-74
2022/09/06 08:34:05;;;;;;;2.90;2.40;;;22.40;98.00;;;;;;5031240;28;20509;-74
2022/09/06 08:36:32;;;;;;;4.17;2.80;;;22.50;98.00;;;;;;5031388;28;20880;-79
2022/09/06 08:39:01;;;;;;;7.30;2.90;;;22.70;98.00;;;;;;5031304;28;20455;-76
2022/09/06 08:41:31;;;;;;;3.50;2.40;;;22.90;98.00;;;;;;5031121;28;20543;-77
2022/09/06 08:44:03;;;;;;;3.40;2.53;;;23.20;98.00;;;;;;5031045;28;20462;-78
2022/09/06 08:46:35;;;;;;;3.37;2.57;;;23.50;98.00;;;;;;5031322;28;20455;-76
2022/09/06 08:49:06;;;;;;;4.23;2.73;;;23.70;98.00;;;;;;5031087;28;20961;-78
2022/09/06 08:51:54;;;;;;;4.00;2.70;;;23.90;98.00;;;;;;5031213;28;20454;-75
2022/09/06 08:54:29;;;;;;;4.87;2.70;;;24.10;98.00;;;;;;5031130;28;20510;-77
2022/09/06 08:57:06;;;;;;;3.40;2.67;;;24.20;98.00;;;;;;5031089;28;20458;-77
2022/09/06 08:59:38;;;;;;;3.73;2.33;;;24.20;98.00;;;;;;5031170;28;20839;-79
2022/09/06 09:02:12;;;;;;;4.27;3.00;;;24.20;98.00;;;;;;5031063;28;20459;-75
2022/09/06 09:04:44;;;;;;;3.37;2.53;;;24.40;98.00;;;;;;5031031;28;20548;-78
2022/09/06 09:07:32;;;;;;;4.50;2.83;;;24.50;98.00;;;;;;5030947;28;20541;-75
2022/09/06 09:10:05;;;;;;;3.27;2.20;;;24.50;98.00;;;;;;5030877;28;20459;-75
2022/09/06 09:12:43;;;;;;;4.93;3.17;;;24.50;98.00;;;;;;5030841;28;20462;-76
2022/09/06 09:15:13;;;;;;;4.43;2.77;;;24.60;98.00;;;;;;5030749;28;20454;-76
2022/09/06 09:17:42;;;;;;;7.63;2.93;;;24.70;98.00;;;;;;5030840;28;20469;-74
2022/09/06 09:20:11;;;;;;;3.90;2.90;;;24.90;98.00;;;;;;5030651;28;20461;-75
2022/09/06 09:22:39;;;;;;;4.47;2.83;;;25.20;98.00;;;;;;5030875;28;20459;-75
2022/09/06 09:25:09;;;;;;;4.93;2.87;;;25.50;98.00;;;;;;5030626;28;20463;-77
2022/09/06 09:27:38;;;;;;;5.17;3.30;;;25.70;98.00;;;;;;5033572;28;20461;-77
2022/09/06 09:30:06;;;;;;;7.27;2.90;;;25.70;98.00;;;;;;5034376;28;20450;-77
2022/09/06 09:32:35;;;;;;;3.80;2.47;;;25.70;98.00;;;;;;5034626;28;20835;-77
2022/09/06 09:35:23;;;;;;;4.57;3.17;;;25.70;98.00;;;;;;5034516;28;20505;-76
2022/09/06 09:38:02;;;;;;;5.60;2.83;;;25.70;98.00;;;;;;5034449;28;20870;-75
2022/09/06 09:40:33;;;;;;;3.63;2.70;;;25.60;98.00;;;;;;5034447;28;20458;-77
2022/09/06 09:43:14;;;;;;;5.17;3.30;;;25.60;98.00;;;;;;5033987;28;20494;-75
2022/09/06 09:45:42;;;;;;;4.40;2.70;;;25.60;98.00;;;;;;5034289;28;20494;-76
2022/09/06 09:48:23;;;;;;;4.20;2.80;;;25.70;98.00;;;;;;5034173;28;20457;-76
2022/09/06 09:50:52;;;;;;;3.20;2.50;;;25.90;98.00;;;;;;5034311;28;20461;-77
2022/09/06 09:53:21;;;;;;;4.60;3.00;;;26.10;98.00;;;;;;5033755;28;20489;-78
2022/09/06 09:55:54;;;;;;;3.90;2.90;;;26.30;98.00;;;;;;5033978;28;20554;-76
2022/09/06 09:58:31;;;;;;;3.53;2.70;;;26.60;98.00;;;;;;5034081;28;20462;-77
2022/09/06 10:01:18;;;;;;;3.60;2.60;;;26.80;98.00;;;;;;5034091;28;20481;-77
2022/09/06 10:03:45;;;;;;;4.00;3.00;;;27.10;98.00;;;;;;5033811;28;20549;-74
2022/09/06 10:06:15;;;;;;;3.90;2.50;;;27.30;98.00;;;;;;5033942;28;20455;-77
2022/09/06 10:08:43;;;;;;;5.37;2.80;;;27.40;98.00;;;;;;5033780;28;20582;-77
2022/09/06 10:11:14;;;;;;;4.40;2.90;;;27.60;97.50;;;;;;5033813;28;20450;-76
2022/09/06 10:13:49;;;;;;;5.23;2.87;;;27.80;98.00;;;;;;5033774;28;20485;-74
2022/09/06 10:16:16;;;;;;;6.50;3.20;;;28.10;97.30;;;;;;5033696;28;20489;-76
2022/09/06 10:18:44;;;;;;;3.30;2.30;;;28.40;95.90;;;;;;5033559;28;20953;-75
2022/09/06 10:21:14;;;;;;;5.00;2.70;;;28.40;94.80;;;;;;5033598;28;20489;-75
2022/09/06 10:23:57;;;;;;;6.50;2.60;;;28.60;95.20;;;;;;5033580;28;20451;-75
2022/09/06 10:26:35;;;;;;;4.53;2.80;;;28.60;94.00;;;;;;5033702;28;20462;-74
2022/09/06 10:29:05;;;;;;;4.17;2.67;;;28.90;94.80;;;;;;5033507;28;20459;-74
2022/09/06 10:32:01;;;;;;;4.90;3.00;;;29.20;95.00;;;;;;5033463;28;20879;-75
2022/09/06 10:34:51;;;;;;;3.60;2.60;;;29.10;92.60;;;;;;5033193;28;20482;-75
2022/09/06 10:37:36;;;;;;;5.17;2.77;;;29.30;93.20;;;;;;5033023;28;20601;-74
2022/09/06 10:40:07;;;;;;;4.10;2.60;;;29.30;91.90;;;;;;5033059;28;21096;-75
2022/09/06 10:42:42;;;;;;;5.03;3.03;;;29.00;92.60;;;;;;5033424;28;20462;-75
2022/09/06 10:45:28;;;;;;;3.70;2.80;;;28.90;93.30;;;;;;5033218;28;20446;-75
2022/09/06 10:48:00;;;;;;;3.83;2.70;;;29.00;92.40;;;;;;5033253;28;20566;-75
2022/09/06 10:50:41;;;;;;;3.50;2.63;;;29.20;92.70;;;;;;5033041;28;20465;-74
2022/09/06 10:53:19;;;;;;;6.63;3.30;;;29.50;92.40;;;;;;5033190;28;20475;-74
2022/09/06 10:55:51;;;;;;;5.10;2.83;;;29.80;92.00;;;;;;5033252;28;20541;-74
2022/09/06 10:58:26;;;;;;;4.13;2.60;;;30.00;89.70;;;;;;5032950;28;20512;-74
2022/09/06 11:00:55;;;;;;;4.83;2.90;;;30.00;90.80;;;;;;5032842;28;20458;-74
2022/09/06 11:03:29;;;;;;;6.23;3.00;;;29.90;91.50;;;;;;5032728;28;20831;-75
2022/09/06 11:06:06;;;;;;;4.50;2.87;;;29.80;90.60;;;;;;5032799;28;20840;-74
2022/09/06 11:08:43;;;;;;;8.43;3.00;;;29.50;92.50;;;;;;5032885;28;20516;-75
2022/09/06 11:11:17;;;;;;;4.90;2.97;;;29.50;92.00;;;;;;5032676;28;20473;-74
2022/09/06 11:13:44;;;;;;;6.30;2.90;;;29.20;91.60;;;;;;5032564;28;20570;-75
2022/09/06 11:16:18;;;;;;;4.07;2.70;;;28.90;92.50;;;;;;5032440;28;21083;-74
2022/09/06 11:18:51;;;;;;;4.50;2.60;;;28.80;92.00;;;;;;5032514;28;20453;-74
2022/09/06 11:21:40;;;;;;;4.60;3.00;;;28.70;93.00;;;;;;5032489;28;20540;-74
2022/09/06 11:24:13;;;;;;;3.90;2.63;;;28.60;93.30;;;;;;5032341;28;20455;-73
2022/09/06 11:26:44;;;;;;;3.77;2.57;;;28.60;92.50;;;;;;5032749;28;20455;-75
2022/09/06 11:29:19;;;;;;;4.27;2.90;;;28.40;92.10;;;;;;5032163;28;20508;-74
2022/09/06 11:31:53;;;;;;;4.17;2.57;;;28.40;92.70;;;;;;5032421;28;20458;-75
2022/09/06 11:34:23;;;;;;;5.43;3.03;;;28.60;93.10;;;;;;5032185;28;20513;-76
2022/09/06 11:36:51;;;;;;;8.30;3.37;;;28.70;92.50;;;;;;5032530;28;20463;-74
2022/09/06 11:39:29;;;;;;;6.60;3.00;;;28.70;92.30;;;;;;5032074;28;20465;-75
2022/09/06 11:41:57;;;;;;;6.00;2.57;;;28.60;93.10;;;;;;5032140;28;20490;-73
2022/09/06 11:45:16;;;;;;;4.17;2.97;;;28.50;92.60;;;;;;5032136;28;20461;-75
2022/09/06 11:47:45;;;;;;;3.50;2.43;;;28.50;92.30;;;;;;5032144;28;20867;-74
2022/09/06 11:50:24;;;;;;;3.97;2.70;;;28.40;92.30;;;;;;5031846;28;20467;-74
2022/09/06 11:53:11;;;;;;;4.70;2.73;;;28.50;93.30;;;;;;5032018;28;20520;-75
2022/09/06 11:55:44;;;;;;;4.60;2.80;;;28.70;94.20;;;;;;5031878;28;20850;-73
2022/09/06 11:58:23;;;;;;;7.30;3.30;;;28.90;92.90;;;;;;5031805;28;20466;-73
2022/09/06 12:01:23;;;;;;;3.80;2.80;;;29.00;92.40;;;;;;5031756;28;20455;-73
2022/09/06 12:04:06;;;;;;;4.20;2.87;;;29.30;91.70;;;;;;5031452;28;20459;-74
2022/09/06 12:06:36;;;;;;;7.13;2.70;;;29.70;91.30;;;;;;5029403;28;20524;-73
2022/09/06 12:09:37;;;;;;;2.97;2.43;;;29.90;91.00;;;;;;5031483;28;20471;-74
2022/09/06 12:12:06;;;;;;;3.83;2.77;;;30.00;91.00;;;;;;5031478;28;20459;-74
2022/09/06 12:14:39;;;;;;;12.73;2.90;;;30.00;89.50;;;;;;5031525;28;20821;-73
2022/09/06 12:20:06;;;;;;;6.50;3.20;;;30.60;89.40;;;;;;5031188;28;20463;-74
2022/09/06 12:22:53;;;;;;;4.93;3.00;;;31.00;87.90;;;;;;5031610;28;20454;-74
2022/09/06 12:25:54;;;;;;;3.33;2.60;;;31.60;86.50;;;;;;5031433;28;20463;-75
2022/09/06 12:28:33;;;;;;;5.30;2.90;;;32.20;85.80;;;;;;5031341;28;20458;-74
2022/09/06 12:31:01;;;;;;;3.50;2.80;;;32.40;83.50;;;;;;5031707;28;20474;-75
2022/09/06 12:33:31;;;;;;;3.60;2.80;;;32.60;84.00;;;;;;5031670;28;20455;-75
2022/09/06 12:36:16;;;;;;;3.50;2.53;;;32.90;83.30;;;;;;5031403;28;20486;-75
2022/09/06 12:38:55;;;;;;;4.17;2.77;;;32.60;81.50;;;;;;5031534;28;20450;-76
2022/09/06 12:41:24;;;;;;;4.13;2.70;;;32.30;82.00;;;;;;5031268;28;21018;-76
2022/09/06 12:43:54;;;;;;;4.23;2.77;;;32.50;83.20;;;;;;5031196;28;20451;-75
2022/09/06 12:46:21;;;;;;;6.73;2.60;;;32.60;82.60;;;;;;5031435;28;20868;-74
2022/09/06 12:49:04;;;;;;;3.80;2.77;;;32.50;81.20;;;;;;5031603;28;20454;-74
2022/09/06 12:51:33;;;;;;;4.40;3.00;;;32.70;82.10;;;;;;5031469;28;20549;-74
2022/09/06 12:54:02;;;;;;;5.00;2.90;;;33.10;81.20;;;;;;5031030;28;20486;-74
2022/09/06 12:56:34;;;;;;;3.00;2.50;;;33.20;79.90;;;;;;5031241;28;20465;-75
2022/09/06 12:59:20;;;;;;;4.80;2.77;;;33.20;80.50;;;;;;5031020;28;20451;-74
2022/09/06 13:01:55;;;;;;;5.20;3.30;;;32.70;80.80;;;;;;5032807;28;20451;-74
2022/09/06 13:04:31;;;;;;;5.03;3.20;;;32.60;80.00;;;;;;5035079;28;20945;-75
2022/09/06 13:07:00;;;;;;;3.03;2.40;;;31.80;80.10;;;;;;5035179;28;20454;-74
2022/09/06 13:09:29;;;;;;;5.73;3.20;;;31.40;82.80;;;;;;5034973;28;20462;-75
2022/09/06 13:12:04;;;;;;;4.27;2.60;;;31.20;83.40;;;;;;5034882;28;20454;-75